Time;durP1;ratioP1;P1;durP2;ratioP2;P2;SDS_P1;SDS_P2;PMS_P1;PMS_P2;Temp;Humidity;BMP_temperature;BMP_pressure;BME280_temperature;BME280_humidity;BME280_pressure;Samples;Min_cycle;Max_cycle;Signal;HPM_P1;HPM_P2
2021/01/30 00:01:18;;;;;;;24.43;14.63;;;;;;;-2.87;95.13;97387.84;1767549;81;20953;-71
2021/01/30 00:03:49;;;;;;;31.45;16.87;;;;;;;-2.85;95.31;97386.16;1767383;81;21479;-71
2021/01/30 00:06:22;;;;;;;26.97;16.40;;;;;;;-2.83;95.47;97386.22;1762406;80;21173;-71
2021/01/30 00:08:57;;;;;;;27.80;17.02;;;;;;;-2.83;95.57;97389.67;1759479;81;21200;-70
2021/01/30 00:11:28;;;;;;;31.80;17.42;;;;;;;-2.81;95.68;97388.41;1759681;81;21100;-70
2021/01/30 00:13:58;;;;;;;35.80;18.85;;;;;;;-2.77;95.78;97391.06;1759132;81;21559;-71
2021/01/30 00:16:27;;;;;;;29.00;15.95;;;;;;;-2.77;95.75;97388.48;1740595;81;21065;-70
2021/01/30 00:18:57;;;;;;;26.12;15.05;;;;;;;-2.75;95.79;97390.67;1742154;81;21069;-70
2021/01/30 00:21:28;;;;;;;25.57;14.53;;;;;;;-2.71;95.80;97389.02;1741529;82;21372;-70
2021/01/30 00:23:58;;;;;;;19.40;12.33;;;;;;;-2.69;95.86;97384.75;1741573;82;20946;-71
2021/01/30 00:26:29;;;;;;;21.15;12.28;;;;;;;-2.64;95.95;97385.27;1743768;81;21671;-70
2021/01/30 00:29:02;;;;;;;24.63;13.53;;;;;;;-2.59;95.95;97387.51;1757679;81;21334;-70
2021/01/30 00:31:32;;;;;;;24.02;14.28;;;;;;;-2.56;95.94;97383.69;1753768;81;21139;-71
2021/01/30 00:34:04;;;;;;;24.75;14.28;;;;;;;-2.52;95.97;97376.00;1753832;81;21563;-71
2021/01/30 00:36:37;;;;;;;27.17;15.53;;;;;;;-2.49;95.98;97370.88;1753762;81;20998;-72
2021/01/30 00:39:09;;;;;;;23.35;14.18;;;;;;;-2.46;95.98;97378.67;1754999;81;21501;-73
2021/01/30 00:41:42;;;;;;;24.20;14.45;;;;;;;-2.45;95.95;97379.99;1756294;81;21487;-73
2021/01/30 00:44:11;;;;;;;;;;;;;;;-2.42;95.87;97381.33;1756399;81;21291;-72
2021/01/30 00:46:51;;;;;;;24.43;14.03;;;;;;;-2.42;95.77;97376.17;1758891;81;22281;-73
2021/01/30 00:49:22;;;;;;;27.15;14.30;;;;;;;-2.45;95.70;97370.09;1755647;81;21519;-73
2021/01/30 00:51:51;;;;;;;22.82;13.32;;;;;;;-2.45;95.73;97371.37;1753861;81;21076;-73
2021/01/30 00:54:22;;;;;;;21.80;12.43;;;;;;;-2.45;95.76;97371.37;1753718;81;21065;-72
2021/01/30 00:56:59;;;;;;;21.30;12.47;;;;;;;-2.49;95.73;97376.05;1756353;81;21076;-72
2021/01/30 00:59:32;;;;;;;18.42;11.93;;;;;;;-2.51;95.78;97373.44;1749469;81;21709;-73
2021/01/30 01:02:02;;;;;;;17.25;11.60;;;;;;;-2.52;95.93;97373.41;1741634;81;21563;-73
2021/01/30 01:04:34;;;;;;;41.10;20.23;;;;;;;-2.56;96.00;97367.33;1742336;80;21538;-73
2021/01/30 01:07:05;;;;;;;37.30;19.37;;;;;;;-2.60;96.09;97361.67;1751559;81;21583;-73
2021/01/30 01:09:40;;;;;;;47.80;23.55;;;;;;;-2.60;96.32;97365.55;1757386;81;21072;-73
2021/01/30 01:12:12;;;;;;;54.15;27.10;;;;;;;-2.60;96.57;97364.25;1751230;80;22127;-73
2021/01/30 01:14:42;;;;;;;40.80;24.37;;;;;;;-2.59;96.80;97365.99;1748818;80;20983;-73
2021/01/30 01:17:12;;;;;;;36.15;22.07;;;;;;;-2.62;96.77;97360.36;1748587;80;21602;-73
2021/01/30 01:19:42;;;;;;;34.48;20.72;;;;;;;-2.60;97.12;97360.38;1750514;81;21084;-73
2021/01/30 01:22:11;;;;;;;40.52;24.18;;;;;;;-2.59;97.37;97359.54;1735931;82;21068;-73
2021/01/30 01:24:43;;;;;;;34.98;20.90;;;;;;;-2.57;97.59;97356.56;1735946;82;22350;-73
2021/01/30 01:27:16;;;;;;;31.73;19.40;;;;;;;-2.57;97.70;97341.08;1723509;82;21559;-73
2021/01/30 01:29:55;;;;;;;28.52;18.30;;;;;;;-2.58;97.81;97344.08;1724743;83;21121;-73
2021/01/30 01:32:24;;;;;;;28.67;17.07;;;;;;;-2.59;97.89;97347.50;1718539;83;21068;-72
2021/01/30 01:34:54;;;;;;;;;;;;;;;-2.61;97.95;97344.03;1738778;82;21073;-72
2021/01/30 01:37:26;;;;;;;29.52;17.82;;;;;;;-2.62;98.03;97337.12;1687850;84;22205;-73
2021/01/30 01:39:57;;;;;;;29.27;16.82;;;;;;;-2.62;98.08;97332.39;1718396;81;21513;-74
2021/01/30 01:42:26;;;;;;;28.83;15.78;;;;;;;-2.61;98.12;97337.58;1735946;81;21489;-74
2021/01/30 01:44:56;;;;;;;26.77;16.32;;;;;;;-2.59;98.20;97338.47;1753320;81;21089;-72
2021/01/30 01:47:37;;;;;;;27.17;17.90;;;;;;;-2.57;98.27;97336.78;1736925;81;21085;-73
2021/01/30 01:50:08;;;;;;;28.57;17.42;;;;;;;-2.53;98.39;97329.95;1726289;83;21159;-72
2021/01/30 01:52:42;;;;;;;25.60;16.23;;;;;;;-2.51;98.60;97328.27;1726056;82;21120;-73
2021/01/30 01:55:18;;;;;;;24.75;15.58;;;;;;;-2.49;98.75;97330.45;1766591;81;20931;-72
2021/01/30 01:57:52;;;;;;;21.73;14.00;;;;;;;-2.50;98.80;97321.39;1709274;82;28713;-72
2021/01/30 02:00:25;;;;;;;22.55;14.18;;;;;;;-2.52;99.00;97326.95;1726912;83;21484;-73
2021/01/30 02:02:56;;;;;;;21.55;14.03;;;;;;;-2.48;99.24;97317.11;1749372;81;21208;-72
2021/01/30 02:05:34;;;;;;;23.52;14.68;;;;;;;-2.46;99.40;97318.00;1736138;82;21128;-73
2021/01/30 02:08:08;;;;;;;23.50;13.83;;;;;;;-2.43;99.51;97314.18;1705325;83;20967;-72
2021/01/30 02:10:46;;;;;;;23.45;14.30;;;;;;;-2.42;99.60;97308.17;1744724;81;21521;-72
2021/01/30 02:13:23;;;;;;;22.10;13.50;;;;;;;-2.41;99.62;97309.91;1745980;82;21481;-72
2021/01/30 02:16:07;;;;;;;23.07;13.93;;;;;;;-2.40;99.63;97301.31;1737959;82;21162;-72
2021/01/30 02:19:29;;;;;;;23.62;13.60;;;;;;;-2.41;99.41;97303.03;1746162;81;21513;-73
2021/01/30 02:22:31;;;;;;;22.67;13.70;;;;;;;-2.42;99.06;97296.55;1745992;82;21509;-73
2021/01/30 02:25:38;;;;;;;21.27;14.45;;;;;;;-2.47;98.45;97293.03;1752085;81;21085;-72
2021/01/30 02:28:41;;;;;;;20.08;12.63;;;;;;;-2.55;97.90;97292.50;1740267;80;21059;-72
2021/01/30 02:31:56;;;;;;;23.07;13.20;;;;;;;-2.61;97.34;97283.80;1746011;81;21256;-72
2021/01/30 02:34:58;;;;;;;21.42;13.15;;;;;;;-2.67;96.98;97281.98;1717439;80;21493;-73
2021/01/30 02:37:39;;;;;;;22.42;12.63;;;;;;;-2.71;96.67;97281.49;1721720;82;21548;-73
2021/01/30 02:40:20;;;;;;;15.55;10.30;;;;;;;-2.74;96.42;97279.29;1747939;81;20934;-73
2021/01/30 02:43:00;;;;;;;14.25;9.20;;;;;;;-2.78;96.29;97273.21;1754256;81;21516;-73
2021/01/30 02:45:33;;;;;;;13.38;8.93;;;;;;;-2.81;96.21;97271.00;1721421;81;21385;-73
2021/01/30 02:48:10;;;;;;;13.48;8.88;;;;;;;-2.85;96.10;97270.92;1748830;80;20970;-75
2021/01/30 02:50:45;;;;;;;13.93;8.78;;;;;;;-2.86;96.07;97260.58;1766713;80;21492;-72
2021/01/30 02:53:24;;;;;;;14.10;8.45;;;;;;;-2.86;96.00;97266.61;1718092;83;21554;-73
2021/01/30 02:55:56;;;;;;;12.88;8.15;;;;;;;-2.86;95.96;97265.73;1720881;80;21231;-73
2021/01/30 02:58:42;;;;;;;12.85;7.83;;;;;;;-2.86;95.97;97254.12;1722163;81;21315;-73
2021/01/30 03:01:16;;;;;;;12.28;7.53;;;;;;;-2.86;95.93;97246.39;1722347;81;20958;-74
2021/01/30 03:03:45;;;;;;;13.03;7.70;;;;;;;-2.88;95.80;97247.66;1748444;81;21492;-74
2021/01/30 03:06:25;;;;;;;11.10;7.12;;;;;;;-2.90;95.68;97248.47;1755431;81;21480;-74
2021/01/30 03:09:03;;;;;;;11.03;7.75;;;;;;;-2.90;95.70;97251.05;1757247;81;21183;-75
2021/01/30 03:11:47;;;;;;;11.38;7.80;;;;;;;-2.86;95.79;97253.70;1759101;81;21207;-73
2021/01/30 03:14:21;;;;;;;11.08;7.97;;;;;;;-2.81;95.88;97249.94;1708485;82;21529;-74
2021/01/30 03:16:51;;;;;;;;;;;;;;;-2.76;95.95;97244.42;1748069;82;21533;-74
2021/01/30 03:19:24;;;;;;;11.63;7.70;;;;;;;-2.72;95.96;97247.92;1723778;82;20143;-74
2021/01/30 03:22:00;;;;;;;13.18;8.68;;;;;;;-2.69;95.98;97237.64;1698303;80;21465;-75
2021/01/30 03:24:32;;;;;;;16.37;9.58;;;;;;;-2.65;95.97;97236.84;1739016;82;22138;-74
2021/01/30 03:27:01;;;;;;;13.88;9.23;;;;;;;-2.64;95.98;97227.83;1749537;80;21068;-74
2021/01/30 03:29:35;;;;;;;12.55;7.97;;;;;;;-2.69;95.81;97232.06;1760100;80;21096;-75
2021/01/30 03:32:06;;;;;;;10.43;7.35;;;;;;;-2.74;95.57;97229.84;1745324;81;21505;-74
2021/01/30 03:34:36;;;;;;;11.48;7.87;;;;;;;-2.81;95.40;97237.04;1725288;81;21085;-74
2021/01/30 03:37:05;;;;;;;13.08;8.83;;;;;;;-2.82;95.32;97242.17;1750686;80;21220;-74
2021/01/30 03:39:34;;;;;;;13.88;8.65;;;;;;;-2.86;95.28;97244.67;1755109;80;20957;-74
2021/01/30 03:42:05;;;;;;;17.48;9.28;;;;;;;-2.87;95.39;97228.75;1761317;80;20939;-74
2021/01/30 03:44:34;;;;;;;13.35;8.98;;;;;;;-2.83;95.53;97236.15;1761695;80;20942;-75
2021/01/30 03:47:04;;;;;;;13.85;8.98;;;;;;;-2.79;95.69;97226.32;1756364;80;21524;-75
2021/01/30 03:49:35;;;;;;;14.23;9.10;;;;;;;-2.76;95.86;97227.66;1760954;80;21201;-75
2021/01/30 03:52:05;;;;;;;14.70;9.73;;;;;;;-2.73;96.00;97215.22;1757436;81;20973;-75
2021/01/30 03:54:34;;;;;;;16.60;10.82;;;;;;;-2.73;96.14;97217.80;1743977;82;21485;-75
2021/01/30 03:57:03;;;;;;;16.75;11.22;;;;;;;-2.70;96.21;97223.01;1743840;82;20954;-75
2021/01/30 03:59:36;;;;;;;22.52;12.28;;;;;;;-2.66;96.32;97231.23;1747552;81;21521;-74
2021/01/30 04:02:07;;;;;;;18.23;12.07;;;;;;;-2.65;96.48;97234.27;1755640;80;21385;-74
2021/01/30 04:04:36;;;;;;;18.92;11.80;;;;;;;-2.64;96.66;97220.52;1756882;80;20934;-74
2021/01/30 04:07:05;;;;;;;18.48;11.90;;;;;;;-2.62;96.82;97226.14;1757093;79;20954;-73
2021/01/30 04:09:33;;;;;;;19.42;12.13;;;;;;;-2.61;96.87;97225.30;1753681;79;21544;-74
2021/01/30 04:12:03;;;;;;;18.90;12.33;;;;;;;-2.59;96.93;97224.89;1751220;80;21541;-74
2021/01/30 04:14:33;;;;;;;19.02;12.60;;;;;;;-2.59;97.00;97221.45;1741607;80;21214;-73
2021/01/30 04:17:03;;;;;;;20.08;12.35;;;;;;;-2.63;97.04;97206.34;1755908;79;21587;-74
2021/01/30 04:19:39;;;;;;;20.30;12.00;;;;;;;-2.63;97.14;97203.76;1730079;81;20963;-74
2021/01/30 04:22:07;;;;;;;20.35;12.55;;;;;;;-2.65;97.15;97201.58;1753638;80;20935;-73
2021/01/30 04:24:36;;;;;;;19.75;12.85;;;;;;;-2.65;97.13;97206.74;1741194;79;20974;-74
2021/01/30 04:27:05;;;;;;;23.02;12.53;;;;;;;-2.67;97.03;97206.27;1724036;80;21580;-74
2021/01/30 04:29:34;;;;;;;18.23;11.10;;;;;;;-2.67;96.91;97212.30;1747190;80;21131;-73
2021/01/30 04:32:03;;;;;;;18.98;11.12;;;;;;;-2.69;96.85;97209.26;1733312;80;21085;-74
2021/01/30 04:34:33;;;;;;;17.37;12.00;;;;;;;-2.71;96.88;97201.92;1741700;80;21200;-73
2021/01/30 04:37:02;;;;;;;19.70;13.20;;;;;;;-2.73;96.96;97191.57;1721864;80;20951;-73
2021/01/30 04:39:31;;;;;;;19.52;13.10;;;;;;;-2.73;97.16;97190.70;1757831;80;21374;-73
2021/01/30 04:42:11;;;;;;;22.52;14.30;;;;;;;-2.77;97.40;97182.05;1757847;80;21520;-73
2021/01/30 04:44:51;;;;;;;21.60;14.85;;;;;;;-2.81;97.70;97181.56;1732086;80;20969;-75
2021/01/30 04:47:34;;;;;;;25.25;16.10;;;;;;;-2.83;98.13;97180.67;1720377;81;21116;-73
2021/01/30 04:50:43;;;;;;;23.92;16.35;;;;;;;-2.86;98.56;97187.05;1701938;83;21097;-73
2021/01/30 04:53:37;;;;;;;28.50;17.92;;;;;;;-2.94;98.99;97183.06;1745173;82;21427;-73
2021/01/30 04:56:17;;;;;;;26.00;16.97;;;;;;;-3.04;99.51;97186.77;1777583;80;21537;-73
2021/01/30 04:58:55;;;;;;;30.32;19.00;;;;;;;-3.17;100.00;97172.83;1718483;82;21084;-74
2021/01/30 05:01:47;;;;;;;27.73;18.42;;;;;;;-3.25;100.00;97178.28;1749465;81;21069;-74
2021/01/30 05:04:23;;;;;;;30.68;20.25;;;;;;;-3.33;100.00;97173.39;1723490;81;21497;-74
2021/01/30 05:07:12;;;;;;;30.80;20.00;;;;;;;-3.36;100.00;97176.79;1719909;83;21211;-74
2021/01/30 05:09:56;;;;;;;34.73;21.57;;;;;;;-3.40;100.00;97180.16;1736663;82;21038;-74
2021/01/30 05:13:02;;;;;;;34.40;21.77;;;;;;;-3.45;100.00;97175.77;1738387;80;21089;-74
2021/01/30 05:15:51;;;;;;;35.05;22.02;;;;;;;-3.48;100.00;97186.89;1752894;81;21084;-73
2021/01/30 05:18:27;;;;;;;40.52;23.32;;;;;;;-3.52;100.00;97172.22;1728503;81;21477;-73
2021/01/30 05:21:10;;;;;;;36.33;23.40;;;;;;;-3.51;100.00;97172.67;1773263;80;21508;-73
2021/01/30 05:23:44;;;;;;;38.25;23.73;;;;;;;-3.50;100.00;97167.54;1732951;82;21552;-73
2021/01/30 05:26:43;;;;;;;37.25;23.85;;;;;;;-3.47;100.00;97170.59;1723538;82;21109;-73
2021/01/30 05:29:34;;;;;;;36.38;22.93;;;;;;;-3.44;100.00;97161.62;1751812;81;21604;-73
2021/01/30 05:32:20;;;;;;;36.23;23.25;;;;;;;-3.38;100.00;97155.27;1752486;81;21079;-74
2021/01/30 05:35:02;;;;;;;36.85;24.47;;;;;;;-3.29;100.00;97157.16;1730952;82;21293;-74
2021/01/30 05:37:43;;;;;;;37.10;22.98;;;;;;;-3.26;100.00;97157.21;1746492;81;20982;-74
2021/01/30 05:40:32;;;;;;;31.43;18.37;;;;;;;-3.21;100.00;97158.15;1687491;83;20995;-74
2021/01/30 05:43:19;;;;;;;37.17;22.93;;;;;;;-3.19;100.00;97153.46;1746870;81;20974;-74
2021/01/30 05:45:55;;;;;;;32.95;22.37;;;;;;;-3.14;100.00;97157.82;1748087;81;21516;-74
2021/01/30 05:48:37;;;;;;;35.68;22.50;;;;;;;-3.12;100.00;97165.16;1753509;81;21150;-74
2021/01/30 05:51:14;;;;;;;36.38;22.95;;;;;;;-3.10;100.00;97161.76;1738075;81;20974;-74
2021/01/30 05:53:43;;;;;;;39.38;22.65;;;;;;;-3.05;100.00;97159.25;1759224;80;21002;-74
2021/01/30 05:56:12;;;;;;;37.17;23.73;;;;;;;-3.03;100.00;97158.43;1796902;79;21009;-74
2021/01/30 05:58:43;;;;;;;34.65;23.83;;;;;;;-2.98;100.00;97159.36;1766518;79;21949;-74
2021/01/30 06:01:21;;;;;;;33.30;22.82;;;;;;;-2.92;100.00;97161.16;1755908;81;21532;-74
2021/01/30 06:04:09;;;;;;;34.75;22.87;;;;;;;-2.87;100.00;97164.25;1757946;81;21089;-74
2021/01/30 06:06:53;;;;;;;33.38;22.32;;;;;;;-2.81;100.00;97148.45;1750054;81;21501;-74
2021/01/30 06:09:40;;;;;;;31.50;21.57;;;;;;;-2.77;100.00;97145.93;1759346;81;20962;-73
2021/01/30 06:12:29;;;;;;;33.30;22.22;;;;;;;-2.71;100.00;97133.53;1759661;81;21515;-73
2021/01/30 06:15:15;;;;;;;32.60;21.95;;;;;;;-2.68;100.00;97131.86;1755615;81;22115;-74
2021/01/30 06:17:44;;;;;;;34.35;21.70;;;;;;;-2.61;100.00;97137.55;1749333;82;21104;-73
2021/01/30 06:20:25;;;;;;;35.15;22.60;;;;;;;-2.60;100.00;97135.41;1746530;81;21532;-74
2021/01/30 06:23:12;;;;;;;37.58;23.75;;;;;;;-2.61;100.00;97126.35;1755815;81;21085;-73
2021/01/30 06:25:44;;;;;;;35.75;23.10;;;;;;;-2.65;100.00;97133.61;1748584;81;21172;-73
2021/01/30 06:28:25;;;;;;;34.70;22.95;;;;;;;-2.71;100.00;97138.69;1748654;81;21206;-72
2021/01/30 06:30:55;;;;;;;33.73;22.87;;;;;;;-2.76;100.00;97132.61;1724532;81;20965;-72
2021/01/30 06:33:28;;;;;;;34.13;22.52;;;;;;;-2.79;100.00;97134.72;1752401;81;20954;-71
2021/01/30 06:36:10;;;;;;;36.65;23.47;;;;;;;-2.81;100.00;97142.00;1759457;81;21527;-71
2021/01/30 06:39:10;;;;;;;33.75;23.40;;;;;;;-2.87;100.00;97143.61;1752589;81;21492;-71
2021/01/30 06:41:39;;;;;;;35.10;22.95;;;;;;;-2.94;100.00;97143.51;1748560;81;21371;-71
2021/01/30 06:44:27;;;;;;;38.78;23.90;;;;;;;-3.06;100.00;97139.04;1752726;81;21093;-71
2021/01/30 06:47:18;;;;;;;36.23;24.00;;;;;;;-3.10;100.00;97143.70;1753634;80;20967;-71
2021/01/30 06:49:51;;;;;;;37.07;23.87;;;;;;;-3.14;100.00;97143.64;1748037;80;21132;-71
2021/01/30 06:52:25;;;;;;;39.88;25.15;;;;;;;-3.21;100.00;97134.52;1751650;81;26469;-71
2021/01/30 06:55:10;;;;;;;37.17;24.45;;;;;;;-3.21;100.00;97140.97;1753700;81;21205;-72
2021/01/30 06:57:52;;;;;;;37.85;23.83;;;;;;;-3.22;100.00;97120.31;1748004;80;20986;-72
2021/01/30 07:00:28;;;;;;;38.50;24.70;;;;;;;-3.20;100.00;97121.20;1745340;80;21037;-73
2021/01/30 07:03:14;;;;;;;38.83;24.80;;;;;;;-3.20;100.00;97119.50;1749669;80;20931;-74
2021/01/30 07:06:14;;;;;;;39.27;24.98;;;;;;;-3.21;100.00;97104.87;1743578;82;21505;-72
2021/01/30 07:09:13;;;;;;;38.02;24.50;;;;;;;-3.15;100.00;97096.35;1749363;80;21594;-74
2021/01/30 07:12:14;;;;;;;37.58;24.92;;;;;;;-3.11;100.00;97092.97;1726700;82;20950;-72
2021/01/30 07:15:02;;;;;;;39.05;24.87;;;;;;;-3.10;100.00;97088.69;1725751;82;20939;-72
2021/01/30 07:18:12;;;;;;;36.70;24.92;;;;;;;-3.09;100.00;97089.13;1733269;82;20959;-72
2021/01/30 07:21:08;;;;;;;37.42;24.05;;;;;;;-3.07;100.00;97088.73;1744981;81;21516;-73
2021/01/30 07:23:48;;;;;;;37.98;25.17;;;;;;;-3.06;100.00;97095.61;1723504;82;21148;-67
2021/01/30 07:26:25;;;;;;;38.63;24.70;;;;;;;-3.07;100.00;97097.33;1728168;82;21133;-72
2021/01/30 07:29:06;;;;;;;37.73;24.60;;;;;;;-3.06;100.00;97109.38;1725706;81;21125;-71
2021/01/30 07:31:43;;;;;;;37.75;24.32;;;;;;;-3.07;100.00;97115.38;1728696;82;21519;-69
2021/01/30 07:34:29;;;;;;;34.50;23.38;;;;;;;-3.05;100.00;97106.38;1724426;82;21085;-72
2021/01/30 07:37:22;;;;;;;33.42;23.75;;;;;;;-2.92;100.00;97094.95;1824186;78;22502;-72
2021/01/30 07:39:58;;;;;;;38.30;24.43;;;;;;;-2.90;100.00;97091.97;1806266;79;20927;-71
2021/01/30 07:42:53;;;;;;;39.08;24.85;;;;;;;-2.89;100.00;97098.87;1815863;79;21340;-71
2021/01/30 07:45:32;;;;;;;34.70;24.47;;;;;;;-2.89;100.00;97099.30;1816755;78;21310;-70
2021/01/30 07:48:19;;;;;;;37.38;24.55;;;;;;;-2.91;100.00;97094.11;1808570;78;20957;-70
2021/01/30 07:50:55;;;;;;;35.15;24.10;;;;;;;-2.92;100.00;97083.35;1800957;79;20914;-70
2021/01/30 07:53:25;;;;;;;37.13;24.40;;;;;;;-2.92;100.00;97083.77;1786429;79;21037;-69
2021/01/30 07:56:21;;;;;;;37.48;24.40;;;;;;;-2.94;100.00;97093.20;1790373;78;21615;-71
2021/01/30 07:59:20;;;;;;;40.15;25.43;;;;;;;-2.95;100.00;97083.73;1813766;79;21473;-69
2021/01/30 08:02:31;;;;;;;36.05;24.55;;;;;;;-2.95;100.00;97083.31;1803157;79;21050;-73
2021/01/30 08:05:27;;;;;;;35.95;24.30;;;;;;;-2.95;100.00;97078.58;1787403;79;20998;-70
2021/01/30 08:08:12;;;;;;;34.15;23.75;;;;;;;-2.93;100.00;97071.30;1801281;79;21006;-70
2021/01/30 08:14:06;;;;;;;36.48;23.83;;;;;;;-2.88;100.00;97082.97;1769373;80;20929;-70
2021/01/30 08:17:10;;;;;;;39.42;25.97;;;;;;;-2.91;100.00;97097.11;1763960;80;20942;-72
2021/01/30 08:20:10;;;;;;;39.83;25.70;;;;;;;-2.97;100.00;97093.16;1777498;80;21010;-71
2021/01/30 08:23:02;;;;;;;38.95;25.20;;;;;;;-3.02;100.00;97096.97;1781357;79;21135;-70
2021/01/30 08:25:46;;;;;;;30.08;18.90;;;;;;;-3.04;100.00;97100.38;1742727;80;21273;-70
2021/01/30 08:28:40;;;;;;;38.48;23.87;;;;;;;-3.06;100.00;97096.91;1781417;80;21170;-70
2021/01/30 08:31:34;;;;;;;34.50;23.92;;;;;;;-3.06;100.00;97084.88;1780443;80;21006;-71
2021/01/30 08:34:23;;;;;;;38.55;25.72;;;;;;;-3.02;100.00;97084.07;1766904;80;21076;-71
2021/01/30 08:37:02;;;;;;;37.73;24.75;;;;;;;-3.02;100.00;97084.07;1762774;80;20931;-72
2021/01/30 08:39:34;;;;;;;39.23;25.32;;;;;;;-3.02;100.00;97096.10;1705189;80;21226;-71
2021/01/30 08:42:22;;;;;;;35.30;24.25;;;;;;;-2.97;100.00;97093.16;1775560;79;20946;-71
2021/01/30 08:44:54;;;;;;;39.05;24.30;;;;;;;-2.98;100.00;97090.14;1774758;80;20939;-71
2021/01/30 08:47:30;;;;;;;38.15;25.23;;;;;;;-2.96;100.00;97089.73;1761545;80;21932;-72
2021/01/30 08:50:12;;;;;;;40.43;25.02;;;;;;;-2.94;100.00;97089.33;1761589;80;21018;-71
2021/01/30 08:52:54;;;;;;;40.05;25.80;;;;;;;-2.94;100.00;97090.20;1774275;80;21258;-70
2021/01/30 08:55:48;;;;;;;39.30;25.07;;;;;;;-2.93;100.00;97097.09;1765137;80;21045;-72
2021/01/30 08:58:40;;;;;;;40.43;26.57;;;;;;;-2.94;100.00;97084.17;1756884;80;21178;-72
2021/01/30 09:01:23;;;;;;;40.58;26.12;;;;;;;-2.93;100.00;97090.64;1761737;80;21093;-71
2021/01/30 09:03:59;;;;;;;41.35;26.27;;;;;;;-2.93;100.00;97079.46;1749107;80;21453;-71
2021/01/30 09:06:48;;;;;;;38.70;25.23;;;;;;;-2.93;100.00;97080.75;1706084;83;21425;-71
2021/01/30 09:09:20;;;;;;;37.88;24.63;;;;;;;-2.94;100.00;97065.70;1689484;83;20983;-71
2021/01/30 09:11:59;;;;;;;38.90;25.82;;;;;;;-2.94;100.00;97057.95;1667938;85;21030;-70
2021/01/30 09:14:31;;;;;;;37.15;24.72;;;;;;;-2.92;100.00;97053.69;1664213;85;21021;-70
2021/01/30 09:17:14;;;;;;;34.83;24.12;;;;;;;-2.89;100.00;97052.86;1677137;84;21036;-70
2021/01/30 09:20:13;;;;;;;38.25;25.52;;;;;;;-2.86;100.00;97049.02;1676929;84;21233;-72
2021/01/30 09:23:12;;;;;;;39.20;25.88;;;;;;;-2.87;100.00;97041.70;1668331;84;21049;-71
2021/01/30 09:25:59;;;;;;;34.70;23.12;;;;;;;-2.86;100.00;97043.86;1694128;84;20961;-70
2021/01/30 09:28:30;;;;;;;35.55;23.27;;;;;;;-2.81;100.00;97045.24;1692406;83;21005;-70
2021/01/30 09:31:05;;;;;;;35.90;23.47;;;;;;;-2.76;100.00;97028.97;1711636;82;21729;-70
2021/01/30 09:33:44;;;;;;;37.42;24.27;;;;;;;-2.71;100.00;97020.86;1708298;82;21195;-70
2021/01/30 09:36:24;;;;;;;34.33;24.18;;;;;;;-2.64;100.00;97032.11;1711391;83;20975;-71
2021/01/30 09:41:37;;;;;;;34.98;23.32;;;;;;;-2.51;100.00;97026.66;1842125;78;22679;-71
2021/01/30 09:44:25;;;;;;;35.43;23.07;;;;;;;-2.49;100.00;97034.86;1811022;79;20915;-71
2021/01/30 09:46:57;;;;;;;35.63;22.80;;;;;;;-2.46;100.00;97028.87;1743062;81;21213;-70
2021/01/30 09:49:29;;;;;;;34.83;23.38;;;;;;;-2.42;100.00;97025.04;1751652;81;21002;-70
2021/01/30 09:51:59;;;;;;;36.98;23.70;;;;;;;-2.36;100.00;97027.72;1739913;81;20943;-70
2021/01/30 09:54:28;;;;;;;34.90;23.80;;;;;;;-2.32;100.00;97023.45;1770391;81;20987;-70
2021/01/30 09:57:07;;;;;;;34.43;24.23;;;;;;;-2.26;100.00;97023.09;1739841;82;20983;-70
2021/01/30 09:59:36;;;;;;;34.65;23.00;;;;;;;-2.25;100.00;97008.45;1743300;81;21381;-69
2021/01/30 10:02:12;;;;;;;37.60;24.67;;;;;;;-2.24;100.00;97008.90;1743949;81;21580;-70
2021/01/30 10:04:41;;;;;;;35.45;24.25;;;;;;;-2.24;100.00;96995.98;1739044;82;20943;-69
2021/01/30 10:07:14;;;;;;;35.63;24.87;;;;;;;-2.24;100.00;96997.27;1732277;81;20938;-70
2021/01/30 10:09:45;;;;;;;38.92;24.82;;;;;;;-2.24;100.00;96990.82;1761042;79;21075;-71
2021/01/30 10:12:15;;;;;;;;;;;;;;;-2.22;100.00;97004.61;1777537;78;21421;-69
2021/01/30 10:14:50;;;;;;;33.65;21.75;;;;;;;-2.20;100.00;96995.16;1761022;78;20131;-70
2021/01/30 10:17:36;;;;;;;34.23;22.48;;;;;;;-2.16;100.00;97001.22;1760941;80;21494;-68
2021/01/30 10:20:10;;;;;;;33.92;23.77;;;;;;;-2.11;100.00;96997.83;1770826;80;21626;-69
2021/01/30 10:22:43;;;;;;;34.65;22.65;;;;;;;-2.01;100.00;96999.63;1772065;80;20978;-69
2021/01/30 10:25:19;;;;;;;35.35;24.18;;;;;;;-1.93;100.00;96995.82;1769731;81;24731;-69
2021/01/30 10:27:47;;;;;;;35.13;23.67;;;;;;;-1.90;100.00;96998.43;1729425;82;20974;-69
2021/01/30 10:30:18;;;;;;;33.80;23.00;;;;;;;-1.88;100.00;96992.02;1750436;81;20946;-70
2021/01/30 10:32:54;;;;;;;30.88;21.93;;;;;;;-1.85;100.00;96997.20;1768949;80;20903;-70
2021/01/30 10:35:46;;;;;;;33.20;22.77;;;;;;;-1.80;100.00;96991.64;1770405;80;21015;-69
2021/01/30 10:38:21;;;;;;;32.25;23.27;;;;;;;-1.75;100.00;96991.25;1760220;79;21202;-71
2021/01/30 10:40:58;;;;;;;34.70;23.20;;;;;;;-1.71;100.00;96983.53;1806771;78;20947;-69
2021/01/30 10:43:32;;;;;;;36.45;24.12;;;;;;;-1.67;100.00;96983.98;1794911;79;21544;-70
2021/01/30 10:46:11;;;;;;;35.28;23.98;;;;;;;-1.66;100.00;96973.22;1785563;78;20935;-69
2021/01/30 10:48:39;;;;;;;34.45;22.50;;;;;;;-1.64;100.00;96979.27;1792232;78;21479;-71
2021/01/30 10:51:16;;;;;;;34.45;23.47;;;;;;;-1.62;100.00;96978.85;1776295;79;21104;-69
2021/01/30 10:53:46;;;;;;;33.60;23.45;;;;;;;-1.57;100.00;96973.28;1779056;79;20991;-72
2021/01/30 10:56:24;;;;;;;35.08;23.65;;;;;;;-1.56;100.00;96968.98;1805230;79;21347;-73
2021/01/30 10:58:55;;;;;;;35.52;23.45;;;;;;;-1.55;100.00;96962.52;1787213;79;21049;-71
2021/01/30 11:01:32;;;;;;;36.35;24.77;;;;;;;-1.52;100.00;96958.66;1791387;79;21563;-71
2021/01/30 11:04:04;;;;;;;40.08;25.15;;;;;;;-1.46;100.00;96957.41;1732945;82;21521;-72
2021/01/30 11:06:44;;;;;;;34.80;23.47;;;;;;;-1.45;100.00;96953.96;1785439;79;20955;-72
2021/01/30 11:09:30;;;;;;;32.73;22.60;;;;;;;-1.42;100.00;96949.23;1735611;81;21489;-70
2021/01/30 11:12:16;;;;;;;34.35;23.55;;;;;;;-1.42;100.00;96956.99;1739308;82;20956;-71
2021/01/30 11:14:45;;;;;;;31.35;21.40;;;;;;;-1.39;100.00;96955.75;1754249;80;20918;-72
2021/01/30 11:17:31;;;;;;;31.48;21.37;;;;;;;-1.34;100.00;96948.88;1762498;80;21196;-72
2021/01/30 11:20:01;;;;;;;33.88;22.70;;;;;;;-1.30;100.00;96948.90;1757857;81;21529;-69
2021/01/30 11:22:30;;;;;;;30.17;21.73;;;;;;;-1.20;100.00;96955.41;1739326;81;21074;-66
2021/01/30 11:25:10;;;;;;;31.68;21.97;;;;;;;-1.15;100.00;96952.41;1767672;79;20905;-70
2021/01/30 11:27:45;;;;;;;29.55;21.45;;;;;;;-1.10;100.00;96952.00;1769950;80;21009;-74
2021/01/30 11:30:24;;;;;;;34.15;22.55;;;;;;;-1.01;100.00;96952.04;1770207;79;21458;-73
2021/01/30 11:33:11;;;;;;;32.58;22.60;;;;;;;-0.90;100.00;96950.81;1765338;80;21011;-73
2021/01/30 11:35:46;;;;;;;33.65;21.60;;;;;;;-0.84;100.00;96947.82;1754160;80;21035;-71
2021/01/30 11:38:20;;;;;;;29.98;21.12;;;;;;;-0.82;100.00;96944.80;1707401;83;20947;-72
2021/01/30 11:40:54;;;;;;;28.62;19.87;;;;;;;-0.81;100.00;96941.36;1714467;82;21105;-72
2021/01/30 11:43:23;;;;;;;28.12;19.85;;;;;;;-0.77;100.00;96945.69;1743802;81;21457;-71
2021/01/30 11:45:54;;;;;;;30.90;22.32;;;;;;;-0.72;100.00;96945.70;1699286;83;21069;-72
2021/01/30 11:48:25;;;;;;;28.60;19.43;;;;;;;-0.70;100.00;96938.80;1778785;80;21529;-72
2021/01/30 11:50:54;;;;;;;28.65;20.17;;;;;;;-0.63;100.00;96940.54;1778319;80;21049;-73
2021/01/30 11:53:25;;;;;;;26.87;18.87;;;;;;;-0.58;100.00;96938.82;1778605;80;21045;-73
2021/01/30 11:55:57;;;;;;;29.75;21.25;;;;;;;-0.52;100.00;96937.97;1779154;80;22105;-74
2021/01/30 11:58:26;;;;;;;30.00;20.72;;;;;;;-0.48;100.00;96941.00;1778543;80;20993;-73
2021/01/30 12:00:55;;;;;;;30.92;21.73;;;;;;;-0.44;100.00;96934.56;1777975;79;20981;-73
2021/01/30 12:03:28;;;;;;;32.00;21.10;;;;;;;-0.37;100.00;96938.02;1779149;80;20998;-71
2021/01/30 12:05:58;;;;;;;;;;;;;;;-0.34;100.00;96942.77;1776836;79;20974;-73
2021/01/30 12:08:27;;;;;;;31.52;21.45;;;;;;;-0.32;100.00;96934.58;1778995;79;20656;-73
2021/01/30 12:10:59;;;;;;;28.83;20.82;;;;;;;-0.29;100.00;96933.71;1783320;79;20934;-73